Archival Weather

Snohomish County (Paine Fld)

Everett, Washington (KPAE)

Report from: Thursday, October 26, 2023 12:53 PM PDT
Current time: Friday, June 14, 2024 5:16 AM PDT

Current weather – Weather history – Daily summaries
Weather forecast

Temperature9.4°C (48.9°F)
Dew point0.6°C (33.1°F)
Winds Calm
Visibility10 mi. (16.1 km)
Clouds Sky clear
Altimeter30.24 in.Hg (1024 mB)
Relative humidity54 %
Density altitude-953 ft. (-290 m)
Sea-level pressure102.5 kPa (1025 mB, 30.25 in.Hg)
Remarks Automated weather observing station with precipitation discriminator
Flight conditions Visual Meteorological Conditions
Raw dataKPAE 261953Z 00000KT 10SM CLR 09/01 A3024 RMK AO2 SLP245 T00940006
An error has occurred. This application may no longer respond until reloaded. Reload 🗙